Time;durP1;ratioP1;P1;durP2;ratioP2;P2;SDS_P1;SDS_P2;PMS_P1;PMS_P2;Temp;Humidity;BMP_temperature;BMP_pressure;BME280_temperature;BME280_humidity;BME280_pressure;Samples;Min_cycle;Max_cycle;Signal;HPM_P1;HPM_P2
2021/07/07 00:00:45;;;;;;;4.30;1.33;;;18.10;99.90;;;;;;5033215;28;20237;-61
2021/07/07 00:03:15;;;;;;;4.33;1.50;;;18.10;99.90;;;;;;5034089;28;20234;-60
2021/07/07 00:05:44;;;;;;;4.93;1.20;;;18.10;99.90;;;;;;5028531;28;20241;-60
2021/07/07 00:08:13;;;;;;;3.90;1.40;;;18.00;99.90;;;;;;5029143;28;20253;-61
2021/07/07 00:10:43;;;;;;;3.17;1.20;;;18.00;99.90;;;;;;5012941;28;20273;-61
2021/07/07 00:13:13;;;;;;;3.50;1.30;;;18.00;99.90;;;;;;5028776;28;20231;-61
2021/07/07 00:15:43;;;;;;;4.30;1.30;;;18.00;99.90;;;;;;5028815;28;20503;-61
2021/07/07 00:18:14;;;;;;;3.47;1.40;;;17.90;99.90;;;;;;5028440;28;20238;-61
2021/07/07 00:20:53;;;;;;;3.63;1.23;;;17.90;99.90;;;;;;5040855;28;20241;-61
2021/07/07 00:23:24;;;;;;;5.50;1.20;;;17.80;99.90;;;;;;5034786;28;20257;-61
2021/07/07 00:25:54;;;;;;;2.83;1.10;;;17.90;99.90;;;;;;5028952;28;20234;-61
2021/07/07 00:28:24;;;;;;;3.33;1.60;;;17.80;99.90;;;;;;5028759;28;20261;-61
2021/07/07 00:30:55;;;;;;;4.80;1.43;;;17.80;99.90;;;;;;5027456;28;20755;-61
2021/07/07 00:33:25;;;;;;;4.40;1.50;;;17.80;99.90;;;;;;5006401;28;20713;-61
2021/07/07 00:35:56;;;;;;;4.00;1.50;;;17.70;99.90;;;;;;5020538;28;20336;-61
2021/07/07 00:38:25;;;;;;;3.07;1.30;;;17.70;99.90;;;;;;5027202;28;20604;-60
2021/07/07 00:40:56;;;;;;;3.67;1.13;;;17.70;99.90;;;;;;5026374;28;20687;-61
2021/07/07 00:43:26;;;;;;;3.10;1.40;;;17.60;99.90;;;;;;5027201;28;20320;-61
2021/07/07 00:45:55;;;;;;;3.60;1.40;;;17.60;99.90;;;;;;5031886;28;20642;-61
2021/07/07 00:48:25;;;;;;;5.10;1.60;;;17.60;99.90;;;;;;5028810;28;20313;-61
2021/07/07 00:50:59;;;;;;;3.93;1.23;;;17.60;99.90;;;;;;5031795;28;20290;-61
2021/07/07 00:53:30;;;;;;;5.17;1.77;;;17.50;99.90;;;;;;5030767;28;20252;-60
2021/07/07 00:56:00;;;;;;;4.20;1.53;;;17.50;99.90;;;;;;5033720;28;20234;-60
2021/07/07 00:58:29;;;;;;;3.07;1.50;;;17.50;99.90;;;;;;5031867;28;20245;-61
2021/07/07 01:01:00;;;;;;;6.70;1.60;;;17.50;99.90;;;;;;5026679;28;20244;-61
2021/07/07 01:03:30;;;;;;;5.60;1.40;;;17.40;99.90;;;;;;5027766;28;20260;-61
2021/07/07 01:06:01;;;;;;;4.70;1.70;;;17.40;99.90;;;;;;5027793;28;20233;-61
2021/07/07 01:08:31;;;;;;;3.97;1.60;;;17.40;99.90;;;;;;5027988;28;20242;-61
2021/07/07 01:11:01;;;;;;;4.67;1.70;;;17.40;99.90;;;;;;5027393;28;20248;-61
2021/07/07 01:13:30;;;;;;;4.20;1.50;;;17.40;99.90;;;;;;5027395;28;20712;-61
2021/07/07 01:16:01;;;;;;;5.23;1.77;;;17.30;99.90;;;;;;5028063;28;20267;-61
2021/07/07 01:18:31;;;;;;;4.07;1.43;;;17.30;99.90;;;;;;5042836;28;20241;-61
2021/07/07 01:21:02;;;;;;;3.63;1.70;;;17.30;99.90;;;;;;5035545;28;20702;-60
2021/07/07 01:23:33;;;;;;;4.27;1.60;;;17.20;99.90;;;;;;5027719;28;20253;-61
2021/07/07 01:26:03;;;;;;;3.23;1.73;;;17.20;99.90;;;;;;5027329;28;20237;-61
2021/07/07 01:28:33;;;;;;;3.50;1.60;;;17.20;99.90;;;;;;5027896;28;20246;-60
2021/07/07 01:31:05;;;;;;;4.07;1.80;;;17.20;99.90;;;;;;5026490;28;20307;-61
2021/07/07 01:33:35;;;;;;;3.00;1.50;;;17.20;99.90;;;;;;5027108;28;20698;-61
2021/07/07 01:36:05;;;;;;;3.07;1.57;;;17.10;99.90;;;;;;5027230;28;20242;-61
2021/07/07 01:38:36;;;;;;;6.43;1.57;;;17.10;99.90;;;;;;5027021;28;20953;-60
2021/07/07 01:41:06;;;;;;;3.83;1.70;;;17.10;99.90;;;;;;5027142;28;20324;-60
2021/07/07 01:43:35;;;;;;;4.17;1.47;;;17.10;99.90;;;;;;5026843;28;20253;-61
2021/07/07 01:46:04;;;;;;;2.37;1.60;;;17.00;99.90;;;;;;5034593;28;20234;-61
2021/07/07 01:48:34;;;;;;;4.43;1.60;;;17.00;99.90;;;;;;5032822;28;20705;-61
2021/07/07 01:51:03;;;;;;;4.43;1.40;;;17.00;99.90;;;;;;5026844;28;20236;-61
2021/07/07 01:53:32;;;;;;;3.33;1.40;;;16.90;99.90;;;;;;5027516;28;20283;-61
2021/07/07 01:56:04;;;;;;;5.10;1.73;;;16.90;99.90;;;;;;5034203;28;20243;-61
2021/07/07 01:58:33;;;;;;;2.30;1.70;;;16.90;99.90;;;;;;5031156;28;20233;-61
2021/07/07 02:01:03;;;;;;;4.27;1.60;;;16.90;99.90;;;;;;5027031;28;20241;-61
2021/07/07 02:03:31;;;;;;;3.13;1.50;;;16.80;99.90;;;;;;5027459;28;20291;-61
2021/07/07 02:05:59;;;;;;;4.93;1.70;;;16.80;99.90;;;;;;5027545;28;20244;-60
2021/07/07 02:08:28;;;;;;;2.53;1.50;;;16.70;99.90;;;;;;5027311;28;20323;-61
2021/07/07 02:10:56;;;;;;;2.73;1.50;;;16.70;99.90;;;;;;5027060;28;20333;-61
2021/07/07 02:13:25;;;;;;;3.63;1.60;;;16.70;99.90;;;;;;5026548;28;20233;-61
2021/07/07 02:15:54;;;;;;;2.23;1.73;;;16.70;99.90;;;;;;5013024;28;20237;-60
2021/07/07 02:18:22;;;;;;;5.67;1.57;;;16.70;99.90;;;;;;5026818;28;20240;-60
2021/07/07 02:20:50;;;;;;;3.23;1.57;;;16.70;99.90;;;;;;5026481;28;20264;-60
2021/07/07 02:23:18;;;;;;;5.07;1.70;;;16.70;99.90;;;;;;5026658;28;20244;-60
2021/07/07 02:25:47;;;;;;;4.77;1.73;;;16.60;99.90;;;;;;5031907;28;20267;-61
2021/07/07 02:28:17;;;;;;;3.63;1.63;;;16.60;99.90;;;;;;5029350;28;20739;-60
2021/07/07 02:30:47;;;;;;;4.43;1.60;;;16.50;99.90;;;;;;5026143;28;20248;-61
2021/07/07 02:33:15;;;;;;;4.63;1.60;;;16.50;99.90;;;;;;5026682;28;20240;-61
2021/07/07 02:35:44;;;;;;;4.03;1.80;;;16.50;99.90;;;;;;5030859;28;20263;-61
2021/07/07 02:38:15;;;;;;;2.47;1.57;;;16.50;99.90;;;;;;5033765;28;20236;-60
2021/07/07 02:40:45;;;;;;;3.93;1.43;;;16.50;99.90;;;;;;5026200;28;20236;-61
2021/07/07 02:43:14;;;;;;;4.40;1.70;;;16.50;99.90;;;;;;5028972;28;20238;-59
2021/07/07 02:45:42;;;;;;;3.67;1.80;;;16.50;99.90;;;;;;5034815;28;20322;-61
2021/07/07 02:48:14;;;;;;;2.13;1.23;;;16.50;99.90;;;;;;5035981;28;20271;-60
2021/07/07 02:50:44;;;;;;;3.30;1.70;;;16.40;99.90;;;;;;5027295;28;20270;-61
2021/07/07 02:53:14;;;;;;;6.80;1.60;;;16.40;99.90;;;;;;5037366;28;20240;-61
2021/07/07 02:55:43;;;;;;;2.13;1.53;;;16.40;99.90;;;;;;5029844;28;20692;-61
2021/07/07 02:58:11;;;;;;;4.63;1.60;;;16.40;99.90;;;;;;5030227;28;20232;-61
2021/07/07 03:00:42;;;;;;;4.30;1.70;;;16.30;99.90;;;;;;5033729;28;20238;-61
2021/07/07 03:03:13;;;;;;;3.33;1.60;;;16.30;99.90;;;;;;5010636;28;20271;-61
2021/07/07 03:05:43;;;;;;;4.80;1.60;;;16.30;99.90;;;;;;5022543;28;20259;-61
2021/07/07 03:08:12;;;;;;;4.27;1.87;;;16.30;99.90;;;;;;5029936;28;20240;-61
2021/07/07 03:10:42;;;;;;;5.83;2.00;;;16.30;99.90;;;;;;5029465;28;20290;-61
2021/07/07 03:13:10;;;;;;;2.33;1.40;;;16.30;99.90;;;;;;5029364;28;20236;-60
2021/07/07 03:15:40;;;;;;;3.07;1.67;;;16.30;99.90;;;;;;5029691;28;20232;-60
2021/07/07 03:18:09;;;;;;;2.53;1.53;;;16.30;99.90;;;;;;5044812;28;20233;-60
2021/07/07 03:20:42;;;;;;;3.27;1.67;;;16.30;99.90;;;;;;5032330;28;20263;-61
2021/07/07 03:23:13;;;;;;;5.60;1.60;;;16.20;99.90;;;;;;5036385;28;20227;-60
2021/07/07 03:25:41;;;;;;;2.27;1.70;;;16.20;99.90;;;;;;5034038;28;20236;-60
2021/07/07 03:28:09;;;;;;;4.33;1.70;;;16.20;99.90;;;;;;5037196;28;20240;-60
2021/07/07 03:30:38;;;;;;;3.00;1.70;;;16.20;99.90;;;;;;5029068;28;20229;-60
2021/07/07 03:33:06;;;;;;;3.90;1.60;;;16.20;99.90;;;;;;5029650;28;20241;-61
2021/07/07 03:35:34;;;;;;;4.07;1.63;;;16.20;99.90;;;;;;5032372;28;20258;-60
2021/07/07 03:38:04;;;;;;;3.33;1.80;;;16.10;99.90;;;;;;5037752;28;20254;-61
2021/07/07 03:40:34;;;;;;;3.43;1.60;;;16.20;99.90;;;;;;5032050;28;20232;-61
2021/07/07 03:43:02;;;;;;;3.07;1.60;;;16.10;99.90;;;;;;5037639;28;20236;-60
2021/07/07 03:45:30;;;;;;;4.07;1.50;;;16.20;99.90;;;;;;5031481;28;20248;-60
2021/07/07 03:47:59;;;;;;;3.03;1.70;;;16.10;99.90;;;;;;5049646;28;20236;-60
2021/07/07 03:50:27;;;;;;;3.57;1.70;;;16.10;99.90;;;;;;5036019;28;20221;-62
2021/07/07 03:52:55;;;;;;;3.57;1.80;;;16.10;99.90;;;;;;5029216;28;20632;-63
2021/07/07 03:55:28;;;;;;;2.90;1.60;;;16.10;99.90;;;;;;5031318;28;20314;-62
2021/07/07 03:57:56;;;;;;;4.47;1.80;;;16.20;99.90;;;;;;5032619;28;20237;-63
2021/07/07 04:00:26;;;;;;;4.47;1.97;;;16.10;99.90;;;;;;5030778;28;20320;-61
2021/07/07 04:02:56;;;;;;;3.10;1.60;;;16.10;99.90;;;;;;5038532;28;20697;-62
2021/07/07 04:05:25;;;;;;;3.53;1.60;;;16.10;99.90;;;;;;5030712;28;20260;-63
2021/07/07 04:07:54;;;;;;;2.97;1.70;;;16.10;99.90;;;;;;5032828;28;20233;-62
2021/07/07 04:10:22;;;;;;;3.20;1.90;;;16.20;99.90;;;;;;5028874;28;20237;-63
2021/07/07 04:12:52;;;;;;;2.50;1.80;;;16.10;99.90;;;;;;5043458;28;20247;-62
2021/07/07 04:15:21;;;;;;;2.90;1.73;;;16.20;99.90;;;;;;5028492;28;20251;-62
2021/07/07 04:17:49;;;;;;;3.00;2.13;;;16.20;99.90;;;;;;5028664;28;20263;-62
2021/07/07 04:20:20;;;;;;;3.83;1.77;;;16.20;99.90;;;;;;5028158;28;20288;-63
2021/07/07 04:22:49;;;;;;;2.80;1.63;;;16.20;99.90;;;;;;5028758;28;20255;-62
2021/07/07 04:25:18;;;;;;;4.83;1.60;;;16.20;99.90;;;;;;5028089;28;20225;-62
2021/07/07 04:27:47;;;;;;;3.87;2.20;;;16.20;99.90;;;;;;5028144;28;20264;-62
2021/07/07 04:30:19;;;;;;;3.90;1.67;;;16.20;99.90;;;;;;5028665;28;20278;-62
2021/07/07 04:32:48;;;;;;;3.50;1.47;;;16.20;99.90;;;;;;5025787;28;20240;-62
2021/07/07 04:35:18;;;;;;;3.93;1.60;;;16.20;99.90;;;;;;5028878;28;20232;-62
2021/07/07 04:37:48;;;;;;;3.97;1.50;;;16.20;99.90;;;;;;5024558;28;20236;-63
2021/07/07 04:40:19;;;;;;;2.43;1.60;;;16.20;99.90;;;;;;5027680;28;20263;-63
2021/07/07 04:42:48;;;;;;;2.20;1.63;;;16.20;99.90;;;;;;5017716;28;20245;-62
2021/07/07 04:45:18;;;;;;;3.20;1.70;;;16.30;99.90;;;;;;5028376;28;20236;-62
2021/07/07 04:47:46;;;;;;;2.53;1.50;;;16.20;99.90;;;;;;5028228;28;20717;-62
2021/07/07 04:50:17;;;;;;;4.03;1.80;;;16.20;99.90;;;;;;5028052;28;20228;-62
2021/07/07 04:52:45;;;;;;;3.10;1.70;;;16.30;99.90;;;;;;5046148;28;21094;-62
2021/07/07 04:55:14;;;;;;;4.90;1.80;;;16.40;99.90;;;;;;5028464;28;20234;-63
2021/07/07 04:57:43;;;;;;;4.87;2.07;;;16.40;99.90;;;;;;5047811;28;20294;-63
2021/07/07 05:00:14;;;;;;;5.87;1.80;;;16.40;99.90;;;;;;5047540;28;20293;-63
2021/07/07 05:02:45;;;;;;;2.80;1.50;;;16.40;99.90;;;;;;5027276;28;20236;-62
2021/07/07 05:05:15;;;;;;;3.13;2.00;;;16.40;99.90;;;;;;5027628;28;20234;-63
2021/07/07 05:07:44;;;;;;;3.40;1.70;;;16.50;99.90;;;;;;5027455;28;20240;-63
2021/07/07 05:10:14;;;;;;;3.40;1.63;;;16.40;99.90;;;;;;5027619;28;20286;-63
2021/07/07 05:12:42;;;;;;;3.27;1.80;;;16.50;99.90;;;;;;5027339;28;20271;-63
2021/07/07 05:15:12;;;;;;;3.30;1.50;;;16.50;99.90;;;;;;5027467;28;20244;-62
2021/07/07 05:17:41;;;;;;;3.73;1.80;;;16.50;99.90;;;;;;5026914;28;20628;-62
2021/07/07 05:20:13;;;;;;;4.90;1.70;;;16.50;99.90;;;;;;5029800;28;20307;-62
2021/07/07 05:22:43;;;;;;;4.63;1.97;;;16.50;99.90;;;;;;5025649;28;20600;-62
2021/07/07 05:25:12;;;;;;;3.33;1.60;;;16.50;99.90;;;;;;5025984;28;20687;-63
2021/07/07 05:27:41;;;;;;;3.10;1.73;;;16.50;99.90;;;;;;5045846;28;20476;-62
2021/07/07 05:30:14;;;;;;;2.53;1.53;;;16.50;99.90;;;;;;5045869;28;20239;-62
2021/07/07 05:32:42;;;;;;;2.50;1.50;;;16.60;99.90;;;;;;5025499;28;20263;-63
2021/07/07 05:35:13;;;;;;;3.17;1.60;;;16.60;99.90;;;;;;5040864;28;20267;-62
2021/07/07 05:37:44;;;;;;;3.83;1.70;;;16.60;99.90;;;;;;5016354;28;20248;-62
2021/07/07 05:40:16;;;;;;;4.67;2.10;;;16.70;99.90;;;;;;5024988;28;20233;-62
2021/07/07 05:42:49;;;;;;;4.03;1.60;;;16.70;99.90;;;;;;5025732;28;20655;-62
2021/07/07 05:45:18;;;;;;;3.20;1.80;;;16.70;99.90;;;;;;5026390;28;20318;-63
2021/07/07 05:47:46;;;;;;;3.03;1.80;;;16.80;99.90;;;;;;5045966;28;20240;-63
2021/07/07 05:50:17;;;;;;;3.03;1.50;;;16.70;99.90;;;;;;5043716;28;20228;-62
2021/07/07 05:52:45;;;;;;;3.93;1.60;;;16.80;99.90;;;;;;5024949;28;20244;-62
2021/07/07 05:55:15;;;;;;;5.80;2.00;;;16.80;99.90;;;;;;5026015;28;20260;-62
2021/07/07 05:57:43;;;;;;;3.73;1.70;;;16.80;99.90;;;;;;5025361;28;20656;-61
2021/07/07 06:00:14;;;;;;;3.60;1.87;;;16.90;99.90;;;;;;5024806;28;20324;-60
2021/07/07 06:02:43;;;;;;;6.63;2.13;;;17.00;99.90;;;;;;5024899;28;20627;-60
2021/07/07 06:05:12;;;;;;;3.63;1.50;;;17.30;99.90;;;;;;5024036;28;20240;-61
2021/07/07 06:07:42;;;;;;;3.10;1.83;;;17.60;99.90;;;;;;5025442;28;20643;-61
2021/07/07 06:10:12;;;;;;;8.13;2.10;;;18.00;99.90;;;;;;5024750;28;20506;-60
2021/07/07 06:12:41;;;;;;;2.67;1.40;;;18.50;99.90;;;;;;5040164;28;20726;-60
2021/07/07 06:15:11;;;;;;;6.13;1.70;;;18.90;99.90;;;;;;5017114;28;20569;-61
2021/07/07 06:17:40;;;;;;;3.57;1.40;;;19.10;99.90;;;;;;5034398;28;20611;-61
2021/07/07 06:20:11;;;;;;;5.07;1.83;;;19.20;99.90;;;;;;5025543;28;20230;-60
2021/07/07 06:22:42;;;;;;;3.97;1.43;;;19.40;99.90;;;;;;5025518;28;20908;-61
2021/07/07 06:25:15;;;;;;;1.77;1.20;;;19.60;99.90;;;;;;5029052;28;20268;-60
2021/07/07 06:27:47;;;;;;;3.93;1.53;;;20.10;99.90;;;;;;5030157;28;20239;-61
2021/07/07 06:30:41;;;;;;;4.03;1.40;;;20.40;99.90;;;;;;5038628;28;20242;-62
2021/07/07 06:33:11;;;;;;;3.47;1.40;;;20.40;99.90;;;;;;5030891;28;20326;-62
2021/07/07 06:35:39;;;;;;;2.37;1.37;;;20.30;99.90;;;;;;5028794;28;20242;-62
2021/07/07 06:38:07;;;;;;;3.00;1.30;;;20.00;99.90;;;;;;5026328;28;20259;-62
2021/07/07 06:40:36;;;;;;;3.33;1.60;;;19.90;99.90;;;;;;5026424;28;20584;-62
2021/07/07 06:43:04;;;;;;;4.70;1.57;;;19.70;99.90;;;;;;5024983;28;20766;-62
2021/07/07 06:45:37;;;;;;;4.93;1.43;;;19.90;99.90;;;;;;5026155;28;20243;-62
2021/07/07 06:48:06;;;;;;;4.70;1.50;;;19.90;99.90;;;;;;5026797;28;20243;-62
2021/07/07 06:50:34;;;;;;;3.40;1.50;;;20.10;99.90;;;;;;5044489;28;20240;-62
2021/07/07 06:53:03;;;;;;;5.63;1.60;;;20.30;99.90;;;;;;5030841;28;20296;-62
2021/07/07 06:55:33;;;;;;;4.00;1.50;;;20.20;99.90;;;;;;5028706;28;20247;-62
2021/07/07 06:58:01;;;;;;;2.30;1.40;;;20.00;99.90;;;;;;5028581;28;20249;-62
2021/07/07 07:00:29;;;;;;;5.80;1.53;;;20.10;99.90;;;;;;5025544;28;20762;-62
2021/07/07 07:02:57;;;;;;;7.10;1.60;;;20.30;99.90;;;;;;5041162;28;20246;-62
2021/07/07 07:05:25;;;;;;;4.63;1.53;;;20.20;99.90;;;;;;5025931;28;20645;-62
2021/07/07 07:07:53;;;;;;;5.30;1.50;;;20.00;99.90;;;;;;5025775;28;20651;-62
2021/07/07 07:10:21;;;;;;;3.60;1.40;;;20.30;99.90;;;;;;5026082;28;20239;-61
2021/07/07 07:12:51;;;;;;;2.60;1.10;;;20.90;99.90;;;;;;5027638;28;20264;-62
2021/07/07 07:15:20;;;;;;;3.87;1.70;;;21.20;99.90;;;;;;5028162;28;20334;-62
2021/07/07 07:17:48;;;;;;;2.33;1.10;;;21.10;99.90;;;;;;5037404;28;20321;-62
2021/07/07 07:20:18;;;;;;;3.47;1.40;;;21.20;99.90;;;;;;5041099;28;20589;-62
2021/07/07 07:22:46;;;;;;;3.50;1.43;;;21.30;99.90;;;;;;5026893;28;20264;-62
2021/07/07 07:25:16;;;;;;;5.17;1.53;;;21.50;99.90;;;;;;5027205;28;20585;-62
2021/07/07 07:27:44;;;;;;;4.07;1.20;;;21.60;99.90;;;;;;5026326;28;20750;-62
2021/07/07 07:30:14;;;;;;;2.73;1.33;;;21.70;99.90;;;;;;5025740;28;20241;-62
2021/07/07 07:32:44;;;;;;;3.67;1.30;;;21.70;99.90;;;;;;5026500;28;20249;-62
2021/07/07 07:35:14;;;;;;;5.57;1.50;;;21.70;99.90;;;;;;5027077;28;20734;-62
2021/07/07 07:37:47;;;;;;;3.63;1.10;;;21.90;99.90;;;;;;5046532;28;20250;-62
2021/07/07 07:40:21;;;;;;;2.73;1.10;;;22.00;99.90;;;;;;5045376;28;20641;-62
2021/07/07 07:42:50;;;;;;;3.93;1.23;;;22.40;99.90;;;;;;5026447;28;20263;-62
2021/07/07 07:45:21;;;;;;;3.40;1.30;;;22.80;99.90;;;;;;5027511;28;20247;-62
2021/07/07 07:47:49;;;;;;;2.23;1.07;;;22.90;99.90;;;;;;5046594;28;20649;-62
2021/07/07 07:50:18;;;;;;;4.03;1.40;;;22.90;99.90;;;;;;5030927;28;20251;-62
2021/07/07 07:52:46;;;;;;;4.20;1.30;;;23.00;99.90;;;;;;5026210;28;20260;-61
2021/07/07 07:55:16;;;;;;;2.97;1.40;;;23.30;99.90;;;;;;5026464;28;21447;-62
2021/07/07 07:57:44;;;;;;;3.53;1.43;;;23.80;99.90;;;;;;5026214;28;20287;-62
2021/07/07 08:00:14;;;;;;;1.70;1.00;;;24.20;99.90;;;;;;5026218;28;20232;-62
2021/07/07 08:02:46;;;;;;;2.47;1.20;;;24.80;99.90;;;;;;5039745;28;20684;-62
2021/07/07 08:05:16;;;;;;;2.70;1.00;;;25.10;99.90;;;;;;5027008;28;21074;-62
2021/07/07 08:07:45;;;;;;;2.40;0.90;;;25.60;99.90;;;;;;5045967;28;20323;-62
2021/07/07 08:10:18;;;;;;;1.93;0.93;;;25.50;99.90;;;;;;5045408;28;20628;-62
2021/07/07 08:12:46;;;;;;;3.03;1.07;;;25.40;99.90;;;;;;5026294;28;20320;-61
2021/07/07 08:15:17;;;;;;;4.30;1.20;;;25.30;99.90;;;;;;5026969;28;20338;-62
2021/07/07 08:17:46;;;;;;;3.10;1.10;;;25.50;99.90;;;;;;5042938;28;20247;-62
2021/07/07 08:20:16;;;;;;;2.83;1.00;;;25.60;99.90;;;;;;5026110;28;20385;-61
2021/07/07 08:22:45;;;;;;;2.60;1.13;;;25.90;99.90;;;;;;5045404;28;20804;-62
2021/07/07 08:25:15;;;;;;;1.70;0.80;;;26.00;99.90;;;;;;5046076;28;20237;-62
2021/07/07 08:27:43;;;;;;;3.50;1.13;;;25.90;99.90;;;;;;5045946;28;20248;-62
2021/07/07 08:30:13;;;;;;;2.27;1.00;;;26.20;99.90;;;;;;5045667;28;20242;-62
2021/07/07 08:32:42;;;;;;;2.97;1.10;;;26.30;99.90;;;;;;5025686;28;20793;-62
2021/07/07 08:35:12;;;;;;;1.33;0.80;;;26.30;99.90;;;;;;5025205;28;20245;-62
2021/07/07 08:37:41;;;;;;;3.53;1.30;;;26.30;99.90;;;;;;5025828;28;20629;-62
2021/07/07 08:40:12;;;;;;;2.17;0.97;;;26.50;99.90;;;;;;5024771;28;20552;-62
2021/07/07 08:42:42;;;;;;;4.23;1.27;;;26.60;99.90;;;;;;5006337;28;20327;-62
2021/07/07 08:45:13;;;;;;;3.27;1.10;;;26.50;99.90;;;;;;5006070;28;21148;-62
2021/07/07 08:47:43;;;;;;;4.43;1.10;;;26.60;99.90;;;;;;5025432;28;20817;-63
2021/07/07 08:50:15;;;;;;;2.40;1.23;;;26.80;99.90;;;;;;5025504;28;20253;-62
2021/07/07 08:52:43;;;;;;;4.33;1.20;;;26.70;99.90;;;;;;5045275;28;20261;-62
2021/07/07 08:55:14;;;;;;;2.07;0.80;;;26.30;99.90;;;;;;957531;28;10002393;-62
2021/07/07 08:57:43;;;;;;;3.87;1.10;;;26.30;99.90;;;;;;5020517;28;20276;-62
2021/07/07 09:00:15;;;;;;;4.43;1.20;;;26.40;99.90;;;;;;5005124;28;20246;-62
2021/07/07 09:02:48;;;;;;;4.57;1.33;;;26.70;99.90;;;;;;5025197;28;20247;-62
2021/07/07 09:05:19;;;;;;;2.20;1.03;;;26.50;99.90;;;;;;5026139;28;20662;-62
2021/07/07 09:07:47;;;;;;;5.27;1.23;;;26.90;99.90;;;;;;5045439;28;20261;-62
2021/07/07 09:10:17;;;;;;;2.90;1.20;;;27.00;99.90;;;;;;5044841;28;20242;-63
2021/07/07 09:12:47;;;;;;;3.93;1.30;;;27.00;99.90;;;;;;5044999;28;20300;-63
2021/07/07 09:15:17;;;;;;;4.07;1.20;;;27.30;99.90;;;;;;5044406;28;20327;-63
2021/07/07 09:17:49;;;;;;;3.83;1.30;;;27.50;99.90;;;;;;5025318;28;20623;-62
2021/07/07 09:20:24;;;;;;;3.27;1.00;;;27.60;99.90;;;;;;5033199;28;20691;-62
2021/07/07 09:23:13;;;;;;;5.23;1.20;;;27.50;99.90;;;;;;5024935;28;20301;-62
2021/07/07 09:25:48;;;;;;;6.30;1.67;;;27.70;99.90;;;;;;5028740;28;20305;-63
2021/07/07 09:28:18;;;;;;;4.33;1.10;;;27.50;99.90;;;;;;5045231;28;20257;-62
2021/07/07 09:30:46;;;;;;;5.10;1.20;;;27.60;99.90;;;;;;5044313;28;20239;-62
2021/07/07 09:33:15;;;;;;;5.83;1.10;;;27.80;99.90;;;;;;5044513;28;20434;-63
2021/07/07 09:35:45;;;;;;;2.60;1.03;;;27.90;99.90;;;;;;5043590;28;20982;-62
2021/07/07 09:38:13;;;;;;;4.33;1.40;;;28.10;99.90;;;;;;5023654;28;20247;-63
2021/07/07 09:40:43;;;;;;;3.10;1.30;;;28.20;99.90;;;;;;5023912;28;20306;-63
2021/07/07 09:43:15;;;;;;;3.83;1.30;;;28.40;99.90;;;;;;5024678;28;20255;-62
2021/07/07 09:46:06;;;;;;;4.30;1.10;;;28.50;99.90;;;;;;5024378;28;20675;-63
2021/07/07 09:48:38;;;;;;;5.07;1.20;;;28.70;99.90;;;;;;5024480;28;20253;-63
2021/07/07 09:51:08;;;;;;;3.80;1.20;;;28.50;99.90;;;;;;5031141;28;20268;-63
2021/07/07 09:54:25;;;;;;;2.73;1.20;;;28.50;99.90;;;;;;5036045;28;20231;-63
2021/07/07 09:56:57;;;;;;;3.67;1.33;;;28.00;99.90;;;;;;5036049;28;20301;-63
2021/07/07 09:59:25;;;;;;;5.23;1.60;;;27.40;99.90;;;;;;5057720;28;20232;-63
2021/07/07 10:01:54;;;;;;;4.03;1.20;;;26.80;99.90;;;;;;5028394;28;20245;-63
2021/07/07 10:04:31;;;;;;;4.90;1.40;;;26.80;99.90;;;;;;5023478;28;20235;-63
2021/07/07 10:07:02;;;;;;;3.20;1.20;;;27.30;99.90;;;;;;5038725;28;20643;-63
2021/07/07 10:09:30;;;;;;;3.57;1.30;;;28.00;99.90;;;;;;5043965;28;20667;-63
2021/07/07 10:11:58;;;;;;;5.13;1.40;;;27.90;99.90;;;;;;5022514;28;20235;-63
2021/07/07 10:14:28;;;;;;;4.03;1.30;;;27.90;99.90;;;;;;5018621;28;20236;-63
2021/07/07 10:16:56;;;;;;;4.97;1.20;;;28.50;99.90;;;;;;5022891;28;20251;-63
2021/07/07 10:19:26;;;;;;;4.37;1.20;;;28.60;99.90;;;;;;5011498;28;20712;-63
2021/07/07 10:21:56;;;;;;;5.17;1.40;;;28.80;99.90;;;;;;5015398;28;20267;-63
2021/07/07 10:24:28;;;;;;;4.03;1.20;;;28.70;99.90;;;;;;5009222;28;20248;-63
2021/07/07 10:26:59;;;;;;;5.20;1.33;;;28.90;99.90;;;;;;5021641;28;20328;-63
2021/07/07 10:29:28;;;;;;;4.20;1.30;;;28.60;99.70;;;;;;5018521;28;20691;-63
2021/07/07 10:31:57;;;;;;;5.00;1.50;;;27.80;99.70;;;;;;5023309;28;20239;-63
2021/07/07 10:34:28;;;;;;;5.73;1.50;;;27.40;99.90;;;;;;5010830;28;20665;-63
2021/07/07 10:36:58;;;;;;;4.97;1.30;;;27.40;99.90;;;;;;5021622;28;20243;-62
2021/07/07 10:39:29;;;;;;;5.23;1.30;;;27.30;99.90;;;;;;5029559;28;20247;-63
2021/07/07 10:42:01;;;;;;;6.90;1.40;;;27.10;99.90;;;;;;5012397;28;20746;-63
2021/07/07 10:44:50;;;;;;;4.37;1.30;;;27.20;99.90;;;;;;5020858;28;20304;-63
2021/07/07 10:47:41;;;;;;;5.53;1.37;;;27.60;99.90;;;;;;5021542;28;20720;-63
2021/07/07 10:50:11;;;;;;;4.87;1.40;;;27.70;99.90;;;;;;5018118;28;20236;-63
2021/07/07 10:52:44;;;;;;;3.53;1.30;;;27.50;99.90;;;;;;5020474;28;20264;-64
2021/07/07 10:55:17;;;;;;;4.03;1.10;;;27.40;99.90;;;;;;5023408;28;20323;-63
2021/07/07 10:57:47;;;;;;;4.20;1.27;;;27.30;99.90;;;;;;5023536;28;20258;-61
2021/07/07 11:00:34;;;;;;;3.53;1.20;;;27.20;99.90;;;;;;5023751;28;20320;-62
2021/07/07 11:03:36;;;;;;;4.90;1.40;;;27.20;99.90;;;;;;5024446;28;20246;-61
2021/07/07 11:06:36;;;;;;;4.17;1.30;;;27.20;99.90;;;;;;5011744;28;20232;-62
2021/07/07 11:09:17;;;;;;;3.10;1.40;;;27.00;99.90;;;;;;5004943;28;20339;-61
2021/07/07 11:11:48;;;;;;;3.73;1.30;;;26.90;99.90;;;;;;5020911;28;20564;-62
2021/07/07 11:14:20;;;;;;;3.67;1.30;;;27.00;99.90;;;;;;5027184;28;20348;-62
2021/07/07 11:16:54;;;;;;;2.47;1.03;;;26.90;99.90;;;;;;5028226;28;20639;-61
2021/07/07 11:19:44;;;;;;;2.57;1.20;;;26.50;99.90;;;;;;5026347;28;20646;-61
2021/07/07 11:22:14;;;;;;;6.43;1.77;;;26.40;99.90;;;;;;5026977;28;20743;-61
2021/07/07 11:24:48;;;;;;;4.53;1.33;;;26.40;99.90;;;;;;5027024;28;20267;-61
2021/07/07 11:27:18;;;;;;;3.90;1.40;;;26.50;99.90;;;;;;5026905;28;20271;-62
2021/07/07 11:29:46;;;;;;;2.90;1.20;;;26.30;99.90;;;;;;5027111;28;20251;-61
2021/07/07 11:32:37;;;;;;;5.53;1.40;;;26.20;99.90;;;;;;5045425;28;20242;-61
2021/07/07 11:35:07;;;;;;;6.13;1.47;;;26.20;99.90;;;;;;5046856;28;20251;-61
2021/07/07 11:37:36;;;;;;;3.43;1.30;;;25.90;99.90;;;;;;5046475;28;20234;-61
2021/07/07 11:40:12;;;;;;;5.17;1.33;;;25.70;99.90;;;;;;5046699;28;20243;-61
2021/07/07 11:42:56;;;;;;;3.53;1.47;;;25.70;99.90;;;;;;5006329;28;20293;-61
2021/07/07 11:45:26;;;;;;;4.23;1.37;;;25.60;99.90;;;;;;5010096;28;20233;-61
2021/07/07 11:47:58;;;;;;;3.97;1.40;;;26.00;99.90;;;;;;5045871;28;20238;-61
2021/07/07 11:50:27;;;;;;;3.67;1.30;;;26.40;99.90;;;;;;5043239;28;20235;-61
2021/07/07 11:53:00;;;;;;;4.27;1.30;;;26.80;99.90;;;;;;5024505;28;20246;-61
2021/07/07 11:55:49;;;;;;;3.43;1.13;;;27.10;99.90;;;;;;5026314;28;20242;-61
2021/07/07 11:58:24;;;;;;;2.77;1.53;;;27.30;99.90;;;;;;5037632;28;20231;-61
2021/07/07 12:00:55;;;;;;;3.20;1.10;;;27.50;99.90;;;;;;5022343;28;20245;-61
2021/07/07 12:03:25;;;;;;;7.07;1.47;;;27.60;99.90;;;;;;5024042;28;20318;-61
2021/07/07 12:06:01;;;;;;;4.20;1.53;;;27.70;99.90;;;;;;5029686;28;20531;-61
2021/07/07 12:08:34;;;;;;;6.38;1.30;;;27.50;99.90;;;;;;3651469;28;10023420;-61
2021/07/07 12:11:06;;;;;;;2.67;1.23;;;27.40;99.90;;;;;;2420796;28;10002029;-61
2021/07/07 12:13:37;;;;;;;5.60;1.70;;;27.00;99.90;;;;;;5023741;28;20337;-61
2021/07/07 12:16:24;;;;;;;2.50;1.13;;;26.90;99.90;;;;;;5022535;28;20236;-61
2021/07/07 12:18:54;;;;;;;3.77;1.23;;;26.90;99.90;;;;;;5021733;28;20561;-61
2021/07/07 12:21:43;;;;;;;3.87;1.30;;;26.70;99.90;;;;;;5023494;28;20772;-61
2021/07/07 12:24:15;;;;;;;3.33;1.30;;;26.30;99.90;;;;;;5022379;28;20962;-61
2021/07/07 12:26:45;;;;;;;5.27;1.57;;;26.20;99.90;;;;;;5031757;28;20732;-62
2021/07/07 12:29:19;;;;;;;2.83;1.23;;;26.20;99.90;;;;;;5022944;28;20281;-61
2021/07/07 12:31:48;;;;;;;4.17;1.33;;;26.10;99.90;;;;;;5020834;28;20853;-61
2021/07/07 12:34:19;;;;;;;4.13;1.40;;;25.90;99.90;;;;;;5023345;28;20318;-61
2021/07/07 12:36:53;;;;;;;5.27;1.50;;;25.70;99.90;;;;;;5030602;28;20645;-61
2021/07/07 12:39:23;;;;;;;5.80;1.40;;;25.50;99.90;;;;;;5034827;28;20312;-61
2021/07/07 12:41:57;;;;;;;4.47;1.37;;;25.40;99.90;;;;;;5025182;28;20240;-61
2021/07/07 12:44:31;;;;;;;2.70;1.47;;;25.30;99.90;;;;;;5025684;28;20322;-61
2021/07/07 12:47:04;;;;;;;5.50;1.57;;;25.40;99.90;;;;;;5025190;28;20711;-61
2021/07/07 12:49:38;;;;;;;5.43;1.40;;;25.50;99.90;;;;;;5025205;28;20239;-61
2021/07/07 12:52:24;;;;;;;5.50;1.43;;;25.30;99.90;;;;;;5024301;28;20259;-61
2021/07/07 12:55:11;;;;;;;5.37;1.50;;;25.20;99.90;;;;;;5024344;28;20239;-61
2021/07/07 12:57:44;;;;;;;3.77;1.67;;;25.10;99.90;;;;;;5023827;28;20238;-61
2021/07/07 13:00:15;;;;;;;5.23;1.60;;;25.20;99.90;;;;;;5024082;28;20248;-61
2021/07/07 13:02:51;;;;;;;4.17;1.33;;;25.40;99.90;;;;;;5023286;28;20242;-61
2021/07/07 13:05:20;;;;;;;3.33;1.30;;;25.70;99.90;;;;;;5025198;28;20242;-61